BLUE7 KMEM-KPBI
Flight info
| Callsign | BLUE7 |
|---|---|
| Flight time | 1h 44m |
| Altitude | 41000 |
| Route | PIEPE6 IBUFY MGMRY ACORI VUUDU1 |
| Aircraft | C750/M-VGDW/C |
Departure
| Time | 2026-04-23 23:57 |
|---|---|
| Airport | Memphis International Airport (KMEM) |
Arrival
| Time | 2026-04-24 01:41 |
|---|---|
| Airport | Palm Beach International Airport (KPBI) |
| Time | Latitude | Longitude | Altitude | Speed | Heading |
|---|---|---|---|---|---|
| 2026-04-23 23:42 | 35.05542 | -89.96768 | 267 ft | 0 kts | 209° |
| 2026-04-23 23:50 | 35.05542 | -89.96769 | 267 ft | 0 kts | 209° |
| 2026-04-23 23:51 | 35.05535 | -89.96777 | 267 ft | 4 kts | 230° |
| 2026-04-23 23:51 | 35.05513 | -89.96845 | 267 ft | 10 kts | 264° |
| 2026-04-23 23:52 | 35.05515 | -89.96877 | 267 ft | 0 kts | 276° |
| 2026-04-23 23:52 | 35.05515 | -89.96878 | 267 ft | 0 kts | 276° |
| 2026-04-23 23:52 | 35.05519 | -89.96915 | 267 ft | 10 kts | 281° |
| 2026-04-23 23:53 | 35.05441 | -89.96980 | 268 ft | 21 kts | 181° |
| 2026-04-23 23:53 | 35.05257 | -89.97011 | 271 ft | 31 kts | 193° |
| 2026-04-23 23:53 | 35.05014 | -89.97057 | 274 ft | 39 kts | 177° |
| 2026-04-23 23:53 | 35.04716 | -89.97075 | 277 ft | 34 kts | 184° |
| 2026-04-23 23:54 | 35.04688 | -89.97077 | 278 ft | 0 kts | 184° |
| 2026-04-23 23:54 | 35.04676 | -89.97070 | 278 ft | 7 kts | 118° |
| 2026-04-23 23:54 | 35.04745 | -89.97073 | 277 ft | 14 kts | 348° |
| 2026-04-23 23:54 | 35.04874 | -89.97089 | 275 ft | 23 kts | 356° |
| 2026-04-23 23:55 | 35.04990 | -89.97062 | 275 ft | 10 kts | 32° |
| 2026-04-23 23:55 | 35.04982 | -89.97034 | 274 ft | 0 kts | 265° |
| 2026-04-23 23:55 | 35.04980 | -89.97065 | 275 ft | 5 kts | 243° |
| 2026-04-23 23:55 | 35.04899 | -89.97096 | 275 ft | 20 kts | 232° |
| 2026-04-23 23:56 | 35.04887 | -89.97124 | 276 ft | 0 kts | 251° |
| 2026-04-23 23:56 | 35.04865 | -89.97199 | 277 ft | 18 kts | 255° |
| 2026-04-23 23:57 | 35.04756 | -89.97294 | 282 ft | 30 kts | 172° |
| 2026-04-23 23:57 | 35.04200 | -89.97289 | 293 ft | 125 kts | 176° |
| 2026-04-23 23:57 | 35.03183 | -89.97182 | 780 ft | 162 kts | 176° |
| 2026-04-23 23:57 | 35.01950 | -89.97137 | 1636 ft | 189 kts | 180° |
| 2026-04-23 23:58 | 35.00819 | -89.97197 | 2592 ft | 157 kts | 184° |
| 2026-04-23 23:58 | 34.99634 | -89.97323 | 2560 ft | 183 kts | 185° |
| 2026-04-23 23:58 | 34.98368 | -89.97514 | 3077 ft | 175 kts | 187° |
| 2026-04-23 23:58 | 34.97112 | -89.97668 | 3764 ft | 195 kts | 180° |
| 2026-04-23 23:59 | 34.95756 | -89.97507 | 4782 ft | 204 kts | 175° |
| 2026-04-23 23:59 | 34.94343 | -89.97411 | 5879 ft | 208 kts | 179° |
| 2026-04-23 23:59 | 34.92913 | -89.97360 | 6952 ft | 211 kts | 180° |
| 2026-04-23 23:59 | 34.91461 | -89.97322 | 7920 ft | 217 kts | 180° |
| 2026-04-24 00:00 | 34.89945 | -89.97286 | 8898 ft | 222 kts | 181° |
| 2026-04-24 00:00 | 34.88408 | -89.97253 | 9819 ft | 227 kts | 181° |
| 2026-04-24 00:00 | 34.86825 | -89.97323 | 10708 ft | 232 kts | 188° |
| 2026-04-24 00:00 | 34.85200 | -89.97505 | 11583 ft | 238 kts | 187° |
| 2026-04-24 00:01 | 34.83418 | -89.97687 | 11761 ft | 278 kts | 186° |
| 2026-04-24 00:01 | 34.81350 | -89.97895 | 11847 ft | 316 kts | 186° |
| 2026-04-24 00:01 | 34.79063 | -89.98122 | 12258 ft | 340 kts | 186° |
| 2026-04-24 00:01 | 34.76705 | -89.98358 | 13108 ft | 349 kts | 186° |
| 2026-04-24 00:02 | 34.74275 | -89.98601 | 14069 ft | 353 kts | 186° |
| 2026-04-24 00:02 | 34.71805 | -89.98844 | 14996 ft | 358 kts | 186° |
| 2026-04-24 00:02 | 34.69349 | -89.99239 | 15854 ft | 360 kts | 198° |
| 2026-04-24 00:02 | 34.67015 | -90.00294 | 16719 ft | 362 kts | 202° |
| 2026-04-24 00:03 | 34.64620 | -90.01344 | 17537 ft | 367 kts | 203° |
| 2026-04-24 00:03 | 34.62236 | -90.02409 | 18310 ft | 371 kts | 203° |
| 2026-04-24 00:03 | 34.59805 | -90.03491 | 19086 ft | 375 kts | 203° |
| 2026-04-24 00:03 | 34.57333 | -90.04587 | 19824 ft | 380 kts | 203° |
| 2026-04-24 00:04 | 34.54860 | -90.05702 | 20615 ft | 385 kts | 202° |
| 2026-04-24 00:04 | 34.52305 | -90.06780 | 21451 ft | 388 kts | 204° |
| 2026-04-24 00:04 | 34.49777 | -90.07928 | 22258 ft | 393 kts | 203° |
| 2026-04-24 00:04 | 34.47184 | -90.09056 | 23043 ft | 398 kts | 200° |
| 2026-04-24 00:05 | 34.44452 | -90.09631 | 23787 ft | 407 kts | 188° |
| 2026-04-24 00:05 | 34.41627 | -90.10003 | 24565 ft | 410 kts | 189° |
| 2026-04-24 00:05 | 34.38775 | -90.10390 | 25293 ft | 414 kts | 189° |
| 2026-04-24 00:05 | 34.35874 | -90.10662 | 25971 ft | 420 kts | 182° |
| 2026-04-24 00:06 | 34.32998 | -90.10957 | 26637 ft | 420 kts | 193° |
| 2026-04-24 00:06 | 34.30082 | -90.11524 | 27309 ft | 425 kts | 189° |
| 2026-04-24 00:06 | 34.27134 | -90.11958 | 27944 ft | 429 kts | 189° |
| 2026-04-24 00:06 | 34.24167 | -90.12380 | 28555 ft | 433 kts | 189° |
| 2026-04-24 00:07 | 34.21160 | -90.12793 | 29140 ft | 437 kts | 189° |
| 2026-04-24 00:07 | 34.18094 | -90.13210 | 29711 ft | 441 kts | 189° |
| 2026-04-24 00:07 | 34.15025 | -90.13566 | 30271 ft | 446 kts | 183° |
| 2026-04-24 00:07 | 34.11952 | -90.12923 | 30788 ft | 456 kts | 161° |
| 2026-04-24 00:08 | 34.09199 | -90.10919 | 31328 ft | 464 kts | 140° |
| 2026-04-24 00:08 | 34.07157 | -90.07851 | 31849 ft | 470 kts | 119° |
| 2026-04-24 00:08 | 34.06109 | -90.04147 | 32325 ft | 475 kts | 101° |
| 2026-04-24 00:08 | 34.05387 | -90.00243 | 32805 ft | 477 kts | 106° |
| 2026-04-24 00:09 | 34.04460 | -89.96380 | 33282 ft | 481 kts | 107° |
| 2026-04-24 00:09 | 34.03487 | -89.92514 | 33717 ft | 485 kts | 108° |
| 2026-04-24 00:09 | 34.02482 | -89.88605 | 34202 ft | 488 kts | 108° |
| 2026-04-24 00:09 | 34.01470 | -89.84679 | 34685 ft | 491 kts | 108° |
| 2026-04-24 00:10 | 34.00452 | -89.80743 | 35154 ft | 494 kts | 108° |
| 2026-04-24 00:10 | 33.99423 | -89.76766 | 35611 ft | 497 kts | 108° |
| 2026-04-24 00:10 | 33.98393 | -89.72791 | 36064 ft | 500 kts | 108° |
| 2026-04-24 00:10 | 33.97353 | -89.68785 | 36540 ft | 502 kts | 108° |
| 2026-04-24 00:11 | 33.96310 | -89.64771 | 36928 ft | 506 kts | 108° |
| 2026-04-24 00:11 | 33.95252 | -89.60709 | 37297 ft | 508 kts | 108° |
| 2026-04-24 00:11 | 33.94190 | -89.56626 | 37520 ft | 511 kts | 108° |
| 2026-04-24 00:11 | 33.93121 | -89.52533 | 37774 ft | 513 kts | 108° |
| 2026-04-24 00:12 | 33.92055 | -89.48460 | 38013 ft | 515 kts | 108° |
| 2026-04-24 00:12 | 33.90974 | -89.44332 | 38293 ft | 516 kts | 108° |
| 2026-04-24 00:12 | 33.89892 | -89.40205 | 38548 ft | 518 kts | 108° |
| 2026-04-24 00:12 | 33.88806 | -89.36071 | 38769 ft | 520 kts | 108° |
| 2026-04-24 00:13 | 33.87716 | -89.31926 | 39014 ft | 521 kts | 109° |
| 2026-04-24 00:13 | 33.86603 | -89.27702 | 39206 ft | 523 kts | 109° |
| 2026-04-24 00:13 | 33.85513 | -89.23570 | 39350 ft | 524 kts | 109° |
| 2026-04-24 00:13 | 33.84406 | -89.19386 | 39478 ft | 526 kts | 109° |
| 2026-04-24 00:14 | 33.83294 | -89.15179 | 39659 ft | 525 kts | 109° |
| 2026-04-24 00:14 | 33.82222 | -89.11130 | 41081 ft | 502 kts | 109° |
| 2026-04-24 00:14 | 33.81145 | -89.07076 | 40914 ft | 509 kts | 109° |
| 2026-04-24 00:14 | 33.80073 | -89.03046 | 40878 ft | 515 kts | 109° |
| 2026-04-24 00:15 | 33.78979 | -88.98941 | 40981 ft | 518 kts | 109° |
| 2026-04-24 00:15 | 33.77862 | -88.94750 | 40973 ft | 522 kts | 109° |
| 2026-04-24 00:15 | 33.75635 | -88.86420 | 40958 ft | 529 kts | 109° |
| 2026-04-24 00:16 | 33.73375 | -88.77988 | 40952 ft | 531 kts | 109° |
| 2026-04-24 00:16 | 33.71090 | -88.69498 | 40960 ft | 532 kts | 109° |
| 2026-04-24 00:17 | 33.68814 | -88.61060 | 40967 ft | 533 kts | 109° |
| 2026-04-24 00:17 | 33.66519 | -88.52576 | 40968 ft | 533 kts | 109° |
| 2026-04-24 00:18 | 33.64070 | -88.44204 | 40909 ft | 530 kts | 119° |
| 2026-04-24 00:18 | 33.62006 | -88.40594 | 41068 ft | 524 kts | 129° |
| 2026-04-24 00:18 | 33.59760 | -88.37124 | 40942 ft | 527 kts | 129° |
| 2026-04-24 00:19 | 33.55206 | -88.30137 | 40981 ft | 526 kts | 130° |
| 2026-04-24 00:19 | 33.50680 | -88.23216 | 40954 ft | 527 kts | 130° |
| 2026-04-24 00:20 | 33.46171 | -88.16329 | 40952 ft | 527 kts | 130° |
| 2026-04-24 00:20 | 33.41639 | -88.09426 | 40965 ft | 527 kts | 130° |
| 2026-04-24 00:21 | 33.37087 | -88.02503 | 40959 ft | 527 kts | 130° |
| 2026-04-24 00:21 | 33.32531 | -87.95586 | 40957 ft | 527 kts | 130° |
| 2026-04-24 00:22 | 33.27996 | -87.88717 | 40960 ft | 527 kts | 130° |
| 2026-04-24 00:22 | 33.23428 | -87.81806 | 40967 ft | 527 kts | 130° |
| 2026-04-24 00:23 | 33.18873 | -87.74927 | 40961 ft | 527 kts | 130° |
| 2026-04-24 00:23 | 33.14320 | -87.68066 | 40959 ft | 527 kts | 130° |
| 2026-04-24 00:24 | 33.09739 | -87.61179 | 40975 ft | 526 kts | 129° |
| 2026-04-24 00:24 | 33.05188 | -87.54347 | 40980 ft | 526 kts | 129° |
| 2026-04-24 00:25 | 33.00599 | -87.47470 | 40986 ft | 526 kts | 129° |
| 2026-04-24 00:25 | 32.96041 | -87.40651 | 40988 ft | 526 kts | 129° |
| 2026-04-24 00:26 | 32.91458 | -87.33810 | 40990 ft | 526 kts | 130° |
| 2026-04-24 00:26 | 32.86880 | -87.26990 | 40980 ft | 526 kts | 130° |
| 2026-04-24 00:27 | 32.82289 | -87.20161 | 40987 ft | 526 kts | 130° |
| 2026-04-24 00:27 | 32.77730 | -87.13391 | 40988 ft | 526 kts | 130° |
| 2026-04-24 00:28 | 32.73105 | -87.06539 | 40990 ft | 525 kts | 130° |
| 2026-04-24 00:28 | 32.68555 | -86.99809 | 40991 ft | 524 kts | 129° |
| 2026-04-24 00:29 | 32.63948 | -86.93007 | 40996 ft | 524 kts | 129° |
| 2026-04-24 00:29 | 32.59396 | -86.86295 | 40999 ft | 524 kts | 129° |
| 2026-04-24 00:30 | 32.54790 | -86.79521 | 41005 ft | 524 kts | 129° |
| 2026-04-24 00:30 | 32.50188 | -86.72763 | 40997 ft | 525 kts | 129° |
| 2026-04-24 00:31 | 32.45572 | -86.65996 | 41006 ft | 525 kts | 129° |
| 2026-04-24 00:31 | 32.40985 | -86.59284 | 41003 ft | 525 kts | 129° |
| 2026-04-24 00:32 | 32.36356 | -86.52521 | 41003 ft | 525 kts | 129° |
| 2026-04-24 00:32 | 32.31758 | -86.45820 | 41014 ft | 525 kts | 129° |
| 2026-04-24 00:33 | 32.27124 | -86.39075 | 41010 ft | 525 kts | 129° |
| 2026-04-24 00:33 | 32.22458 | -86.32354 | 40993 ft | 525 kts | 133° |
| 2026-04-24 00:34 | 32.16980 | -86.26540 | 40996 ft | 524 kts | 139° |
| 2026-04-24 00:34 | 32.11498 | -86.20888 | 41023 ft | 524 kts | 139° |
| 2026-04-24 00:35 | 32.05961 | -86.15184 | 41006 ft | 524 kts | 139° |
| 2026-04-24 00:35 | 32.00453 | -86.09521 | 41014 ft | 524 kts | 139° |
| 2026-04-24 00:36 | 31.94910 | -86.03827 | 41018 ft | 524 kts | 139° |
| 2026-04-24 00:36 | 31.89404 | -85.98184 | 41029 ft | 525 kts | 139° |
| 2026-04-24 00:37 | 31.83843 | -85.92494 | 41027 ft | 525 kts | 139° |
| 2026-04-24 00:37 | 31.78297 | -85.86828 | 41020 ft | 525 kts | 139° |
| 2026-04-24 00:38 | 31.73245 | -85.80534 | 41008 ft | 526 kts | 132° |
| 2026-04-24 00:38 | 31.68341 | -85.74146 | 41017 ft | 526 kts | 132° |
| 2026-04-24 00:39 | 31.63397 | -85.67725 | 41013 ft | 526 kts | 132° |
| 2026-04-24 00:39 | 31.58468 | -85.61334 | 41020 ft | 526 kts | 132° |
| 2026-04-24 00:40 | 31.53512 | -85.54922 | 41025 ft | 526 kts | 132° |
| 2026-04-24 00:40 | 31.48556 | -85.48519 | 41034 ft | 526 kts | 132° |
| 2026-04-24 00:41 | 31.43644 | -85.42183 | 41030 ft | 526 kts | 131° |
| 2026-04-24 00:41 | 31.38693 | -85.35809 | 41024 ft | 527 kts | 131° |
| 2026-04-24 00:42 | 31.33705 | -85.29397 | 41035 ft | 527 kts | 132° |
| 2026-04-24 00:42 | 31.28770 | -85.23063 | 41021 ft | 527 kts | 132° |
| 2026-04-24 00:43 | 31.23805 | -85.16702 | 41025 ft | 527 kts | 132° |
| 2026-04-24 00:43 | 31.18810 | -85.10315 | 41019 ft | 527 kts | 132° |
| 2026-04-24 00:44 | 31.13853 | -85.03987 | 41013 ft | 527 kts | 132° |
| 2026-04-24 00:44 | 31.08906 | -84.97681 | 41028 ft | 526 kts | 132° |
| 2026-04-24 00:45 | 31.03918 | -84.91333 | 41024 ft | 527 kts | 132° |
| 2026-04-24 00:45 | 30.98957 | -84.85030 | 41026 ft | 527 kts | 132° |
| 2026-04-24 00:46 | 30.93983 | -84.78722 | 41037 ft | 527 kts | 132° |
| 2026-04-24 00:46 | 30.88991 | -84.72401 | 41030 ft | 527 kts | 132° |
| 2026-04-24 00:47 | 30.84024 | -84.66122 | 41030 ft | 526 kts | 132° |
| 2026-04-24 00:47 | 30.79048 | -84.59843 | 41027 ft | 527 kts | 132° |
| 2026-04-24 00:48 | 30.74079 | -84.53580 | 41021 ft | 527 kts | 132° |
| 2026-04-24 00:48 | 30.69088 | -84.47303 | 41026 ft | 527 kts | 132° |
| 2026-04-24 00:49 | 30.64067 | -84.40997 | 41023 ft | 527 kts | 132° |
| 2026-04-24 00:49 | 30.59067 | -84.34728 | 41031 ft | 527 kts | 133° |
| 2026-04-24 00:50 | 30.54068 | -84.28472 | 41023 ft | 527 kts | 133° |
| 2026-04-24 00:50 | 30.49044 | -84.22194 | 41026 ft | 528 kts | 133° |
| 2026-04-24 00:51 | 30.44038 | -84.15946 | 41033 ft | 528 kts | 133° |
| 2026-04-24 00:51 | 30.39041 | -84.09722 | 41032 ft | 528 kts | 133° |
| 2026-04-24 00:52 | 30.36223 | -84.06915 | 40975 ft | 527 kts | 148° |
| 2026-04-24 00:52 | 30.33065 | -84.04785 | 41041 ft | 527 kts | 150° |
| 2026-04-24 00:52 | 30.26704 | -84.00549 | 41012 ft | 527 kts | 150° |
| 2026-04-24 00:53 | 30.20279 | -83.96290 | 41028 ft | 527 kts | 150° |
| 2026-04-24 00:53 | 30.13913 | -83.92074 | 41027 ft | 527 kts | 150° |
| 2026-04-24 00:54 | 30.07541 | -83.87860 | 41019 ft | 528 kts | 150° |
| 2026-04-24 00:54 | 30.01147 | -83.83639 | 41023 ft | 528 kts | 150° |
| 2026-04-24 00:55 | 29.94753 | -83.79427 | 41034 ft | 528 kts | 150° |
| 2026-04-24 00:55 | 29.88323 | -83.75195 | 41027 ft | 529 kts | 150° |
| 2026-04-24 00:56 | 29.81905 | -83.70976 | 41029 ft | 530 kts | 150° |
| 2026-04-24 00:56 | 29.75531 | -83.66795 | 41029 ft | 530 kts | 150° |
| 2026-04-24 00:57 | 29.69100 | -83.62581 | 41033 ft | 531 kts | 151° |
| 2026-04-24 00:58 | 29.59472 | -83.56284 | 41028 ft | 531 kts | 151° |
| 2026-04-24 00:58 | 29.53055 | -83.52094 | 41028 ft | 532 kts | 151° |
| 2026-04-24 00:59 | 29.46592 | -83.47884 | 41030 ft | 533 kts | 151° |
| 2026-04-24 00:59 | 29.40152 | -83.43692 | 41023 ft | 533 kts | 151° |
| 2026-04-24 01:00 | 29.33722 | -83.39516 | 41012 ft | 534 kts | 152° |
| 2026-04-24 01:00 | 29.27258 | -83.35320 | 41024 ft | 534 kts | 152° |
| 2026-04-24 01:01 | 29.21179 | -83.30466 | 41021 ft | 535 kts | 144° |
| 2026-04-24 01:01 | 29.15232 | -83.25365 | 41013 ft | 536 kts | 144° |
| 2026-04-24 01:02 | 29.09235 | -83.20224 | 41037 ft | 537 kts | 145° |
| 2026-04-24 01:02 | 29.03292 | -83.15148 | 41023 ft | 537 kts | 145° |
| 2026-04-24 01:03 | 28.97319 | -83.10057 | 41033 ft | 538 kts | 145° |
| 2026-04-24 01:03 | 28.91327 | -83.04945 | 41044 ft | 539 kts | 145° |
| 2026-04-24 01:04 | 28.85287 | -82.99806 | 41043 ft | 540 kts | 146° |
| 2026-04-24 01:04 | 28.79542 | -82.94356 | 41048 ft | 540 kts | 143° |
| 2026-04-24 01:05 | 28.73538 | -82.89205 | 41036 ft | 540 kts | 146° |
| 2026-04-24 01:05 | 28.67492 | -82.84139 | 41038 ft | 541 kts | 146° |
| 2026-04-24 01:06 | 28.61431 | -82.79070 | 41053 ft | 541 kts | 146° |
| 2026-04-24 01:06 | 28.55339 | -82.73978 | 41051 ft | 542 kts | 147° |
| 2026-04-24 01:07 | 28.49270 | -82.68910 | 41049 ft | 542 kts | 147° |
| 2026-04-24 01:07 | 28.43214 | -82.63865 | 41054 ft | 543 kts | 147° |
| 2026-04-24 01:08 | 28.37116 | -82.58789 | 41055 ft | 542 kts | 147° |
| 2026-04-24 01:08 | 28.31049 | -82.53755 | 41051 ft | 543 kts | 147° |
| 2026-04-24 01:09 | 28.24930 | -82.48672 | 41050 ft | 542 kts | 147° |
| 2026-04-24 01:09 | 28.18868 | -82.43652 | 41052 ft | 543 kts | 148° |
| 2026-04-24 01:10 | 28.12747 | -82.38589 | 41053 ft | 543 kts | 148° |
| 2026-04-24 01:10 | 28.06633 | -82.33540 | 41046 ft | 544 kts | 148° |
| 2026-04-24 01:11 | 28.00027 | -82.29619 | 41114 ft | 525 kts | 169° |
| 2026-04-24 01:11 | 27.93012 | -82.27250 | 41042 ft | 527 kts | 169° |
| 2026-04-24 01:12 | 27.85937 | -82.24860 | 41041 ft | 527 kts | 169° |
| 2026-04-24 01:12 | 27.78869 | -82.22472 | 40660 ft | 534 kts | 169° |
| 2026-04-24 01:12 | 27.75355 | -82.21285 | 40115 ft | 532 kts | 169° |
| 2026-04-24 01:13 | 27.71777 | -82.20077 | 39190 ft | 532 kts | 170° |
| 2026-04-24 01:13 | 27.68251 | -82.18891 | 38261 ft | 532 kts | 169° |
| 2026-04-24 01:13 | 27.64694 | -82.17697 | 37196 ft | 527 kts | 169° |
| 2026-04-24 01:13 | 27.61160 | -82.16511 | 36348 ft | 524 kts | 170° |
| 2026-04-24 01:14 | 27.57676 | -82.15366 | 35548 ft | 522 kts | 170° |
| 2026-04-24 01:14 | 27.54213 | -82.14226 | 34679 ft | 521 kts | 169° |
| 2026-04-24 01:14 | 27.50792 | -82.13100 | 33797 ft | 499 kts | 169° |
| 2026-04-24 01:14 | 27.47538 | -82.12019 | 33860 ft | 473 kts | 169° |
| 2026-04-24 01:15 | 27.44468 | -82.11007 | 33691 ft | 449 kts | 170° |
| 2026-04-24 01:15 | 27.41507 | -82.10032 | 32983 ft | 434 kts | 170° |
| 2026-04-24 01:15 | 27.38645 | -82.09099 | 31605 ft | 433 kts | 169° |
| 2026-04-24 01:15 | 27.35768 | -82.08166 | 30202 ft | 431 kts | 169° |
| 2026-04-24 01:16 | 27.32921 | -82.07218 | 28798 ft | 429 kts | 168° |
| 2026-04-24 01:16 | 27.30091 | -82.06276 | 27531 ft | 424 kts | 168° |
| 2026-04-24 01:16 | 27.27293 | -82.05335 | 26305 ft | 419 kts | 167° |
| 2026-04-24 01:16 | 27.24495 | -82.04393 | 25208 ft | 414 kts | 168° |
| 2026-04-24 01:17 | 27.21770 | -82.03483 | 25070 ft | 408 kts | 168° |
| 2026-04-24 01:17 | 27.19079 | -82.02582 | 25032 ft | 403 kts | 167° |
| 2026-04-24 01:17 | 27.16371 | -82.01678 | 25038 ft | 407 kts | 168° |
| 2026-04-24 01:17 | 27.13649 | -82.00769 | 25037 ft | 410 kts | 168° |
| 2026-04-24 01:18 | 27.10891 | -81.99848 | 25038 ft | 413 kts | 168° |
| 2026-04-24 01:18 | 27.08094 | -81.98920 | 25042 ft | 416 kts | 167° |
| 2026-04-24 01:18 | 27.05335 | -81.97965 | 25032 ft | 421 kts | 164° |
| 2026-04-24 01:18 | 27.02808 | -81.96230 | 25050 ft | 434 kts | 141° |
| 2026-04-24 01:19 | 27.00816 | -81.93642 | 25078 ft | 439 kts | 131° |
| 2026-04-24 01:19 | 26.98854 | -81.90961 | 25047 ft | 441 kts | 132° |
| 2026-04-24 01:19 | 26.96901 | -81.88302 | 24039 ft | 454 kts | 132° |
| 2026-04-24 01:19 | 26.94885 | -81.85579 | 22887 ft | 448 kts | 131° |
| 2026-04-24 01:20 | 26.92934 | -81.82924 | 22130 ft | 433 kts | 131° |
| 2026-04-24 01:20 | 26.91069 | -81.80398 | 22042 ft | 413 kts | 131° |
| 2026-04-24 01:20 | 26.89266 | -81.77952 | 22025 ft | 398 kts | 131° |
| 2026-04-24 01:20 | 26.87548 | -81.75620 | 22021 ft | 385 kts | 131° |
| 2026-04-24 01:21 | 26.85832 | -81.73324 | 22031 ft | 380 kts | 132° |
| 2026-04-24 01:21 | 26.84114 | -81.71074 | 21771 ft | 385 kts | 132° |
| 2026-04-24 01:21 | 26.82333 | -81.68745 | 21021 ft | 402 kts | 132° |
| 2026-04-24 01:21 | 26.80529 | -81.66385 | 20566 ft | 400 kts | 132° |
| 2026-04-24 01:22 | 26.78730 | -81.64021 | 20058 ft | 399 kts | 131° |
| 2026-04-24 01:22 | 26.76934 | -81.61666 | 19672 ft | 397 kts | 131° |
| 2026-04-24 01:22 | 26.75159 | -81.59337 | 19585 ft | 394 kts | 131° |
| 2026-04-24 01:22 | 26.73382 | -81.57011 | 19533 ft | 390 kts | 131° |
| 2026-04-24 01:23 | 26.71625 | -81.54708 | 19281 ft | 386 kts | 131° |
| 2026-04-24 01:23 | 26.69896 | -81.52445 | 19067 ft | 380 kts | 131° |
| 2026-04-24 01:23 | 26.68447 | -81.50040 | 19010 ft | 371 kts | 111° |
| 2026-04-24 01:23 | 26.68047 | -81.47269 | 19046 ft | 358 kts | 85° |
| 2026-04-24 01:24 | 26.68485 | -81.44535 | 18534 ft | 361 kts | 75° |
| 2026-04-24 01:24 | 26.69099 | -81.41788 | 17836 ft | 366 kts | 74° |
| 2026-04-24 01:24 | 26.69734 | -81.39065 | 17043 ft | 360 kts | 74° |
| 2026-04-24 01:24 | 26.70353 | -81.36417 | 16432 ft | 354 kts | 74° |
| 2026-04-24 01:25 | 26.70985 | -81.33720 | 15748 ft | 362 kts | 75° |
| 2026-04-24 01:25 | 26.71631 | -81.30958 | 15110 ft | 368 kts | 75° |
| 2026-04-24 01:25 | 26.72271 | -81.28226 | 14989 ft | 358 kts | 75° |
| 2026-04-24 01:25 | 26.72889 | -81.25580 | 14781 ft | 353 kts | 75° |
| 2026-04-24 01:26 | 26.73511 | -81.22914 | 14579 ft | 348 kts | 75° |
| 2026-04-24 01:26 | 26.74114 | -81.20334 | 14332 ft | 346 kts | 75° |
| 2026-04-24 01:26 | 26.74733 | -81.17681 | 13649 ft | 357 kts | 75° |
| 2026-04-24 01:26 | 26.75359 | -81.14984 | 12948 ft | 366 kts | 75° |
| 2026-04-24 01:27 | 26.76001 | -81.12212 | 12233 ft | 368 kts | 75° |
| 2026-04-24 01:27 | 26.76647 | -81.09439 | 11507 ft | 368 kts | 75° |
| 2026-04-24 01:27 | 26.77280 | -81.06704 | 11035 ft | 358 kts | 75° |
| 2026-04-24 01:27 | 26.77890 | -81.04086 | 10967 ft | 339 kts | 75° |
| 2026-04-24 01:28 | 26.78466 | -81.01608 | 10964 ft | 322 kts | 75° |
| 2026-04-24 01:28 | 26.78764 | -80.99188 | 10963 ft | 307 kts | 88° |
| 2026-04-24 01:28 | 26.78852 | -80.96847 | 10964 ft | 297 kts | 86° |
| 2026-04-24 01:28 | 26.78950 | -80.94561 | 10963 ft | 289 kts | 86° |
| 2026-04-24 01:29 | 26.79047 | -80.92339 | 10967 ft | 283 kts | 86° |
| 2026-04-24 01:29 | 26.79142 | -80.90194 | 10967 ft | 277 kts | 86° |
| 2026-04-24 01:29 | 26.79236 | -80.88034 | 10972 ft | 278 kts | 87° |
| 2026-04-24 01:29 | 26.79332 | -80.85815 | 10998 ft | 297 kts | 87° |
| 2026-04-24 01:30 | 26.79430 | -80.83454 | 10995 ft | 309 kts | 87° |
| 2026-04-24 01:30 | 26.79532 | -80.81020 | 10994 ft | 319 kts | 87° |
| 2026-04-24 01:30 | 26.79628 | -80.78570 | 10980 ft | 313 kts | 87° |
| 2026-04-24 01:30 | 26.79616 | -80.76152 | 10871 ft | 309 kts | 99° |
| 2026-04-24 01:31 | 26.78950 | -80.73895 | 10843 ft | 302 kts | 111° |
| 2026-04-24 01:31 | 26.78219 | -80.71701 | 10678 ft | 301 kts | 110° |
| 2026-04-24 01:31 | 26.77487 | -80.69505 | 10477 ft | 297 kts | 110° |
| 2026-04-24 01:31 | 26.76770 | -80.67350 | 10177 ft | 296 kts | 110° |
| 2026-04-24 01:32 | 26.76046 | -80.65202 | 9854 ft | 295 kts | 110° |
| 2026-04-24 01:32 | 26.75329 | -80.63045 | 9530 ft | 295 kts | 110° |
| 2026-04-24 01:32 | 26.74611 | -80.60880 | 9196 ft | 295 kts | 110° |
| 2026-04-24 01:32 | 26.73907 | -80.58762 | 8913 ft | 293 kts | 110° |
| 2026-04-24 01:33 | 26.73163 | -80.56633 | 8536 ft | 287 kts | 111° |
| 2026-04-24 01:33 | 26.72458 | -80.54617 | 7743 ft | 280 kts | 111° |
| 2026-04-24 01:33 | 26.71753 | -80.52600 | 6786 ft | 278 kts | 110° |
| 2026-04-24 01:33 | 26.71059 | -80.50626 | 5872 ft | 274 kts | 110° |
| 2026-04-24 01:34 | 26.70383 | -80.48675 | 5111 ft | 262 kts | 110° |
| 2026-04-24 01:34 | 26.70001 | -80.46825 | 4971 ft | 229 kts | 92° |
| 2026-04-24 01:34 | 26.69937 | -80.45123 | 4716 ft | 222 kts | 93° |
| 2026-04-24 01:34 | 26.69832 | -80.43356 | 4218 ft | 234 kts | 93° |
| 2026-04-24 01:35 | 26.69727 | -80.41509 | 3719 ft | 239 kts | 94° |
| 2026-04-24 01:35 | 26.69622 | -80.39671 | 3204 ft | 237 kts | 94° |
| 2026-04-24 01:35 | 26.69521 | -80.37865 | 2997 ft | 222 kts | 94° |
| 2026-04-24 01:35 | 26.69428 | -80.36238 | 2962 ft | 203 kts | 94° |
| 2026-04-24 01:36 | 26.69361 | -80.34721 | 2954 ft | 184 kts | 93° |
| 2026-04-24 01:36 | 26.69300 | -80.33343 | 2961 ft | 174 kts | 93° |
| 2026-04-24 01:36 | 26.69238 | -80.32004 | 2984 ft | 174 kts | 93° |
| 2026-04-24 01:36 | 26.69179 | -80.30640 | 2990 ft | 175 kts | 93° |
| 2026-04-24 01:37 | 26.69121 | -80.29288 | 2990 ft | 176 kts | 93° |
| 2026-04-24 01:37 | 26.69062 | -80.27915 | 2955 ft | 179 kts | 93° |
| 2026-04-24 01:37 | 26.69001 | -80.26488 | 2747 ft | 181 kts | 93° |
| 2026-04-24 01:37 | 26.68943 | -80.25140 | 2558 ft | 168 kts | 93° |
| 2026-04-24 01:38 | 26.68890 | -80.23869 | 2328 ft | 158 kts | 92° |
| 2026-04-24 01:38 | 26.68841 | -80.22702 | 2164 ft | 144 kts | 93° |
| 2026-04-24 01:38 | 26.68792 | -80.21602 | 1954 ft | 140 kts | 93° |
| 2026-04-24 01:38 | 26.68746 | -80.20526 | 1756 ft | 137 kts | 93° |
| 2026-04-24 01:39 | 26.68700 | -80.19466 | 1567 ft | 134 kts | 92° |
| 2026-04-24 01:39 | 26.68655 | -80.18434 | 1386 ft | 132 kts | 93° |
| 2026-04-24 01:39 | 26.68612 | -80.17425 | 1217 ft | 130 kts | 93° |
| 2026-04-24 01:39 | 26.68567 | -80.16413 | 1048 ft | 130 kts | 93° |
| 2026-04-24 01:40 | 26.68523 | -80.15404 | 882 ft | 129 kts | 92° |
| 2026-04-24 01:40 | 26.68480 | -80.14410 | 717 ft | 129 kts | 93° |
| 2026-04-24 01:40 | 26.68436 | -80.13395 | 548 ft | 130 kts | 92° |
| 2026-04-24 01:40 | 26.68393 | -80.12390 | 382 ft | 130 kts | 92° |
| 2026-04-24 01:41 | 26.68359 | -80.11381 | 217 ft | 129 kts | 94° |
| 2026-04-24 01:41 | 26.68299 | -80.10384 | 35 ft | 124 kts | 91° |
| 2026-04-24 01:41 | 26.68273 | -80.09587 | 15 ft | 67 kts | 91° |
| 2026-04-24 01:41 | 26.68256 | -80.09251 | 15 ft | 39 kts | 96° |